Time;durP1;ratioP1;P1;durP2;ratioP2;P2;SDS_P1;SDS_P2;PMS_P1;PMS_P2;Temp;Humidity;BMP_temperature;BMP_pressure;BME280_temperature;BME280_humidity;BME280_pressure;Samples;Min_cycle;Max_cycle;Signal;HPM_P1;HPM_P2
2022/03/20 00:00:00;;;;;;;27.67;18.87;;;;;;;1.40;46.55;102989.13;1727443;82;21175;-69
2022/03/20 00:02:30;;;;;;;28.30;18.80;;;;;;;1.40;47.19;102974.67;1692311;83;21055;-69
2022/03/20 00:04:56;;;;;;;29.97;18.83;;;;;;;1.32;47.71;102974.99;1701850;83;21013;-69
2022/03/20 00:07:23;;;;;;;28.57;18.33;;;;;;;1.30;47.83;102976.36;1708530;82;21576;-70
2022/03/20 00:09:52;;;;;;;30.67;18.37;;;;;;;1.31;48.21;102981.16;1691422;83;21080;-69
2022/03/20 00:12:20;;;;;;;25.33;18.53;;;;;;;1.28;48.59;102979.95;1701461;83;21009;-69
2022/03/20 00:14:48;;;;;;;23.07;17.33;;;;;;;1.23;49.12;102980.16;1692582;82;21425;-72
2022/03/20 00:17:16;;;;;;;27.13;16.57;;;;;;;1.18;49.13;102974.22;1711372;83;21089;-69
2022/03/20 00:19:44;;;;;;;30.97;17.80;;;;;;;1.14;49.64;102972.18;1708619;82;21485;-69
2022/03/20 00:22:11;;;;;;;23.10;16.63;;;;;;;1.13;49.68;102974.42;1707452;82;21096;-70
2022/03/20 00:24:42;;;;;;;23.03;16.83;;;;;;;1.12;49.75;102977.11;1707420;84;21093;-69
2022/03/20 00:27:12;;;;;;;22.43;16.70;;;;;;;1.11;50.19;102974.07;1724996;82;21005;-70
2022/03/20 00:29:40;;;;;;;24.30;17.03;;;;;;;1.05;50.95;102963.82;1702283;83;21014;-69
2022/03/20 00:32:12;;;;;;;23.17;16.23;;;;;;;0.97;50.87;102970.23;1698487;82;21271;-72
2022/03/20 00:34:40;;;;;;;23.67;15.33;;;;;;;0.67;50.86;102928.97;1701475;83;21034;-69
2022/03/20 00:37:07;;;;;;;23.23;17.80;;;;;;;0.91;50.92;102967.86;1701357;83;21017;-69
2022/03/20 00:39:36;;;;;;;25.97;15.73;;;;;;;0.94;50.78;102974.31;1718425;82;21517;-70
2022/03/20 00:42:04;;;;;;;29.67;18.13;;;;;;;0.96;50.83;102971.16;1711065;82;21056;-68
2022/03/20 00:44:33;;;;;;;23.47;15.63;;;;;;;0.99;50.70;102975.89;1711016;82;21524;-71
2022/03/20 00:47:00;;;;;;;22.77;15.77;;;;;;;0.99;50.67;102973.27;1712212;83;21065;-69
2022/03/20 00:49:27;;;;;;;;;;;;;;;1.02;50.74;102969.19;1713403;83;21051;-68
2022/03/20 00:51:53;;;;;;;28.23;17.73;;;;;;;0.99;50.60;102969.33;1707590;83;20228;-71
2022/03/20 00:54:20;;;;;;;24.17;16.53;;;;;;;0.95;50.61;102971.22;1653518;85;21136;-69
2022/03/20 00:56:47;;;;;;;24.70;16.45;;;;;;;0.91;50.62;102972.27;1712652;83;21112;-69
2022/03/20 00:59:15;;;;;;;24.90;15.87;;;;;;;0.88;50.71;102964.49;1707712;83;21118;-68
2022/03/20 01:01:42;;;;;;;20.70;16.30;;;;;;;0.82;50.73;102966.05;1709356;82;21192;-70
2022/03/20 01:04:09;;;;;;;26.70;16.80;;;;;;;0.79;50.90;102969.64;1704502;82;21104;-69
2022/03/20 01:06:38;;;;;;;22.63;15.90;;;;;;;0.76;50.88;102971.09;1705222;83;21057;-70
2022/03/20 01:09:06;;;;;;;28.23;16.53;;;;;;;0.76;50.88;102968.47;1679665;84;21707;-69
2022/03/20 01:11:33;;;;;;;26.50;17.97;;;;;;;0.76;50.89;102969.78;1685043;84;21034;-69
2022/03/20 01:14:00;;;;;;;27.00;18.20;;;;;;;0.75;50.80;102971.98;1692074;83;21180;-69
2022/03/20 01:16:28;;;;;;;27.97;17.53;;;;;;;0.74;50.74;102968.98;1705199;82;21103;-69
2022/03/20 01:18:55;;;;;;;29.33;18.63;;;;;;;0.73;50.47;102967.27;1707640;82;21865;-71
2022/03/20 01:21:23;;;;;;;28.27;17.50;;;;;;;0.72;50.22;102969.50;1700592;82;21076;-70
2022/03/20 01:23:51;;;;;;;24.53;17.13;;;;;;;0.73;49.98;102969.42;1688527;84;21142;-70
2022/03/20 01:26:18;;;;;;;27.13;18.90;;;;;;;0.75;49.78;102970.24;1684711;84;21584;-69
2022/03/20 01:28:47;;;;;;;31.07;19.07;;;;;;;0.77;49.64;102967.09;1664380;84;21100;-70
2022/03/20 01:31:14;;;;;;;26.90;18.23;;;;;;;0.80;49.50;102970.52;1673045;84;21744;-71
2022/03/20 01:33:41;;;;;;;;;;;;;;;0.83;49.44;102963.38;1681989;84;21108;-73
2022/03/20 01:36:08;;;;;;;25.90;18.35;;;;;;;0.77;49.65;102949.16;1683939;83;20148;-70
2022/03/20 01:38:35;;;;;;;26.40;17.63;;;;;;;0.82;49.97;102955.09;1702701;83;21525;-69
2022/03/20 01:41:02;;;;;;;;;;;;;;;0.83;50.44;102956.81;1706023;83;21043;-70
2022/03/20 01:43:29;;;;;;;28.35;18.20;;;;;;;0.84;50.85;102959.81;1704765;83;20480;-71
2022/03/20 01:45:56;;;;;;;;;;;;;;;0.77;51.55;102963.59;1694212;82;21498;-70
2022/03/20 01:48:23;;;;;;;28.97;16.17;;;;;;;0.77;51.97;102964.47;1700199;82;20200;-71
2022/03/20 01:50:50;;;;;;;27.00;17.77;;;;;;;0.76;52.58;102973.72;1713592;82;21048;-70
2022/03/20 01:53:20;;;;;;;23.17;16.17;;;;;;;0.76;53.09;102969.78;1712374;82;21610;-71
2022/03/20 01:55:47;;;;;;;26.87;18.07;;;;;;;0.74;53.55;102965.89;1685043;83;21107;-70
2022/03/20 01:58:17;;;;;;;23.60;17.17;;;;;;;0.72;53.93;102962.47;1652018;85;21075;-71
2022/03/20 02:00:44;;;;;;;20.60;16.80;;;;;;;0.72;54.20;102966.41;1677388;84;21102;-69
2022/03/20 02:03:10;;;;;;;24.23;16.27;;;;;;;0.72;54.46;102969.04;1678360;85;21065;-69
2022/03/20 02:05:37;;;;;;;24.82;16.93;;;;;;;0.74;55.12;102966.36;1676342;84;21143;-70
2022/03/20 02:08:05;;;;;;;21.60;16.00;;;;;;;0.67;55.45;102957.85;1654702;85;21128;-70
2022/03/20 02:10:37;;;;;;;18.27;13.87;;;;;;;0.66;55.43;102960.09;1651648;85;21109;-70
2022/03/20 02:13:05;;;;;;;26.20;17.50;;;;;;;0.64;56.00;102957.11;1692270;83;21086;-69
2022/03/20 02:15:39;;;;;;;21.30;16.67;;;;;;;0.62;56.13;102949.30;1661420;84;21106;-72
2022/03/20 02:18:08;;;;;;;29.77;17.33;;;;;;;0.59;56.40;102949.43;1684839;84;21127;-70
2022/03/20 02:20:35;;;;;;;27.43;18.00;;;;;;;0.61;56.49;102952.84;1665697;84;21106;-70
2022/03/20 02:23:02;;;;;;;;;;;;;;;0.61;56.59;102944.13;1679883;85;21081;-69
2022/03/20 02:25:29;;;;;;;24.87;17.40;;;;;;;0.63;56.70;102951.48;1679141;85;20197;-70
2022/03/20 02:28:00;;;;;;;26.00;17.30;;;;;;;0.58;56.69;102951.64;1663150;85;21028;-69
2022/03/20 02:30:30;;;;;;;22.97;16.60;;;;;;;0.62;56.56;102956.32;1681216;85;21740;-70
2022/03/20 02:34:23;;;;;;;26.83;17.90;;;;;;;0.67;56.76;102950.44;1758989;78;22219;-69
2022/03/20 02:36:50;;;;;;;25.17;18.77;;;;;;;0.58;56.75;102958.20;1699650;83;21070;-69
2022/03/20 02:39:18;;;;;;;27.40;18.37;;;;;;;0.55;56.82;102955.72;1696108;83;21637;-69
2022/03/20 02:41:48;;;;;;;29.50;19.53;;;;;;;0.53;56.83;102961.02;1698607;83;21024;-69
2022/03/20 02:44:17;;;;;;;27.27;17.60;;;;;;;0.56;56.67;102958.72;1695266;83;21062;-69
2022/03/20 02:46:45;;;;;;;21.00;17.60;;;;;;;0.56;56.46;102957.41;1697588;83;21624;-69
2022/03/20 02:49:14;;;;;;;27.90;17.62;;;;;;;0.59;56.27;102962.55;1697601;83;21041;-69
2022/03/20 02:51:41;;;;;;;25.40;18.10;;;;;;;0.59;56.01;102963.87;1686053;83;21092;-70
2022/03/20 02:54:10;;;;;;;22.33;16.87;;;;;;;0.61;55.88;102955.94;1689047;83;21093;-73
2022/03/20 02:56:36;;;;;;;31.27;19.57;;;;;;;0.60;55.83;102956.84;1697156;82;21525;-69
2022/03/20 02:59:05;;;;;;;;;;;;;;;0.62;55.78;102964.19;1689101;83;21010;-69
2022/03/20 03:01:31;;;;;;;24.40;17.83;;;;;;;0.62;55.86;102958.94;1683465;82;20173;-70
2022/03/20 03:04:00;;;;;;;26.17;16.70;;;;;;;0.58;55.93;102953.83;1671010;84;21117;-68
2022/03/20 03:06:27;;;;;;;24.17;17.87;;;;;;;0.57;56.05;102959.98;1674014;84;21100;-68
2022/03/20 03:11:40;;;;;;;28.13;19.40;;;;;;;0.58;56.25;102954.27;1649937;85;21059;-71
2022/03/20 03:15:19;;;;;;;26.63;17.77;;;;;;;0.33;56.38;102905.34;1635816;87;21028;-70
2022/03/20 03:16:37;;;;;;;26.90;17.13;;;;;;;0.57;56.48;102955.20;1635397;86;21072;-70
2022/03/20 03:19:05;;;;;;;29.43;18.67;;;;;;;0.56;56.59;102949.07;1636936;86;21100;-69
2022/03/20 03:21:32;;;;;;;24.80;18.97;;;;;;;0.57;56.77;102946.86;1614879;88;21093;-70
2022/03/20 03:23:59;;;;;;;25.90;17.53;;;;;;;0.58;56.88;102947.70;1608447;87;21537;-68
2022/03/20 03:26:27;;;;;;;33.20;20.63;;;;;;;0.57;57.11;102942.92;1621591;87;21569;-71
2022/03/20 03:28:53;;;;;;;29.85;20.12;;;;;;;0.52;57.45;102933.05;1634232;86;21069;-70
2022/03/20 03:31:20;;;;;;;;;;;;;;;0.50;57.63;102930.95;1643131;86;21053;-69
2022/03/20 03:36:36;;;;;;;26.87;19.50;;;;;;;0.45;57.93;102924.16;1632439;87;21104;-69
2022/03/20 03:39:03;;;;;;;31.07;22.13;;;;;;;0.39;58.17;102919.54;1584687;89;21111;-68
2022/03/20 03:41:30;;;;;;;31.93;21.97;;;;;;;0.35;58.41;102918.41;1609048;88;21122;-69
2022/03/20 03:43:57;;;;;;;;;;;;;;;0.31;58.40;102912.89;1620589;87;21168;-69
2022/03/20 03:46:25;;;;;;;28.87;18.77;;;;;;;0.27;58.75;102917.40;1692121;83;20124;-70
2022/03/20 03:48:52;;;;;;;31.60;20.00;;;;;;;0.17;59.20;102920.83;1696822;83;21035;-69
2022/03/20 03:51:19;;;;;;;26.40;19.85;;;;;;;0.15;59.27;102921.34;1693856;83;21568;-69
2022/03/20 03:53:46;;;;;;;24.57;17.53;;;;;;;0.10;59.41;102924.59;1661231;85;21059;-68
2022/03/20 03:56:14;;;;;;;24.77;17.63;;;;;;;0.10;59.73;102923.28;1682269;83;21029;-70
2022/03/20 03:58:41;;;;;;;27.48;17.85;;;;;;;0.06;59.73;102917.75;1676449;84;21015;-69
2022/03/20 04:01:10;;;;;;;24.53;19.13;;;;;;;0.06;59.85;102916.44;1663306;84;21038;-72
2022/03/20 04:03:37;;;;;;;25.27;18.00;;;;;;;0.05;59.90;102916.02;1663906;84;21100;-70
2022/03/20 04:06:04;;;;;;;26.45;18.30;;;;;;;0.08;59.91;102924.26;1662999;84;21017;-69
2022/03/20 04:08:35;;;;;;;25.43;18.60;;;;;;;0.09;59.95;102922.86;1670727;84;21062;-70
2022/03/20 04:11:03;;;;;;;24.27;18.67;;;;;;;0.10;59.97;102924.59;1663815;84;21592;-72
2022/03/20 04:13:29;;;;;;;27.60;19.13;;;;;;;0.11;59.91;102917.10;1664827;84;21130;-72
2022/03/20 04:15:57;;;;;;;26.83;18.57;;;;;;;0.13;59.77;102915.30;1676669;84;21015;-69
2022/03/20 04:18:23;;;;;;;25.88;18.37;;;;;;;0.12;59.77;102910.95;1668804;84;21598;-70
2022/03/20 04:20:52;;;;;;;27.23;19.00;;;;;;;0.13;59.73;102906.12;1671507;84;22182;-70
2022/03/20 04:24:02;;;;;;;25.10;18.30;;;;;;;0.16;59.63;102903.83;1679310;84;21079;-69
2022/03/20 04:25:51;;;;;;;30.27;18.70;;;;;;;0.29;59.44;102908.16;1674790;84;21538;-71
2022/03/20 04:28:19;;;;;;;25.70;18.67;;;;;;;0.45;58.92;102907.95;1678562;84;22425;-71
2022/03/20 04:30:48;;;;;;;27.70;19.63;;;;;;;0.66;58.43;102906.28;1679929;84;21108;-68
2022/03/20 04:33:16;;;;;;;26.07;19.67;;;;;;;0.92;57.09;102908.30;1671779;84;21112;-70
2022/03/20 04:35:45;;;;;;;26.90;18.37;;;;;;;1.13;56.60;102910.50;1685817;83;21042;-69
2022/03/20 04:38:13;;;;;;;24.10;18.23;;;;;;;1.43;55.91;102918.02;1690398;83;21078;-69
2022/03/20 04:40:40;;;;;;;23.77;18.07;;;;;;;1.69;54.77;102911.17;1690724;83;21096;-71
2022/03/20 04:43:07;;;;;;;27.87;17.83;;;;;;;1.75;54.13;102912.23;1690552;83;21517;-70
2022/03/20 04:45:35;;;;;;;24.37;17.17;;;;;;;1.78;53.92;102907.29;1692317;83;21772;-71
2022/03/20 04:59:08;;;;;;;25.37;17.00;;;;;;;2.84;51.31;102914.20;1701663;83;22213;-70
2022/03/20 05:01:37;;;;;;;33.50;19.03;;;;;;;3.29;50.10;102906.27;1698234;83;21152;-71
2022/03/20 05:04:04;;;;;;;25.13;19.13;;;;;;;3.67;49.46;102903.91;1689084;83;21158;-71
2022/03/20 05:06:31;;;;;;;29.67;19.53;;;;;;;4.08;47.65;102916.22;1682785;83;21381;-71
2022/03/20 05:13:19;;;;;;;29.20;18.48;;;;;;;4.26;46.88;102919.66;1664573;83;21623;-70
2022/03/20 05:14:14;;;;;;;30.00;20.93;;;;;;;4.77;45.63;102922.13;1695046;83;21029;-71
2022/03/20 05:16:44;;;;;;;28.50;19.63;;;;;;;5.14;44.84;102921.80;1701466;83;21057;-70
2022/03/20 05:19:12;;;;;;;26.93;19.07;;;;;;;5.43;44.00;102912.16;1710413;82;21083;-71
2022/03/20 05:21:40;;;;;;;29.03;19.10;;;;;;;5.68;43.89;102919.47;1714597;83;21141;-71
2022/03/20 05:24:09;;;;;;;27.77;19.50;;;;;;;6.13;42.39;102916.29;1664283;85;21628;-71
2022/03/20 05:26:36;;;;;;;29.73;21.10;;;;;;;6.56;41.12;102927.30;1692040;84;21633;-71
2022/03/20 05:29:04;;;;;;;30.73;21.90;;;;;;;6.86;40.04;102922.30;1690305;84;21078;-71
2022/03/20 05:31:31;;;;;;;29.27;20.00;;;;;;;7.10;40.00;102928.63;1692661;84;21101;-71
2022/03/20 05:33:59;;;;;;;26.87;21.17;;;;;;;7.44;39.31;102926.36;1692730;84;21128;-72
2022/03/20 05:36:29;;;;;;;29.07;21.07;;;;;;;7.58;38.40;102922.75;1688312;83;21029;-72
2022/03/20 05:38:57;;;;;;;26.53;19.67;;;;;;;7.64;38.44;102937.41;1691207;83;21076;-72
2022/03/20 05:44:11;;;;;;;24.10;19.40;;;;;;;7.70;38.27;102932.99;1688971;83;21056;-71
2022/03/20 05:46:39;;;;;;;26.10;19.30;;;;;;;7.87;37.65;102933.15;1687902;83;21114;-72
2022/03/20 05:49:08;;;;;;;21.43;17.63;;;;;;;8.07;37.68;102947.70;1669050;85;21099;-72
2022/03/20 05:51:37;;;;;;;25.57;18.40;;;;;;;8.29;37.05;102953.20;1687841;84;21601;-72
2022/03/20 05:54:05;;;;;;;21.70;16.17;;;;;;;8.41;36.86;102948.80;1688262;85;21641;-72
2022/03/20 05:59:18;;;;;;;23.03;16.93;;;;;;;8.56;36.66;102953.53;1685209;83;21096;-73
2022/03/20 06:01:45;;;;;;;24.37;17.67;;;;;;;8.69;35.77;102954.34;1704821;83;21166;-72
2022/03/20 06:04:13;;;;;;;23.30;16.30;;;;;;;8.35;36.36;102962.05;1712080;82;21021;-73
2022/03/20 06:06:42;;;;;;;21.07;16.40;;;;;;;8.18;36.66;102959.75;1714950;82;21147;-72
2022/03/20 06:09:10;;;;;;;24.37;17.63;;;;;;;8.07;36.89;102959.17;1713701;82;21498;-71
2022/03/20 06:11:39;;;;;;;21.80;16.77;;;;;;;8.05;37.00;102959.76;1648098;85;21596;-69
2022/03/20 06:14:06;;;;;;;27.43;18.63;;;;;;;8.13;36.73;102965.37;1620300;88;21094;-69
2022/03/20 06:16:36;;;;;;;24.77;17.90;;;;;;;8.08;36.72;102967.98;1627096;88;21653;-69
2022/03/20 06:19:08;;;;;;;23.07;17.97;;;;;;;7.94;37.02;102967.62;1623052;88;21105;-69
2022/03/20 06:21:35;;;;;;;22.57;17.60;;;;;;;8.08;36.99;102975.50;1628093;88;21070;-70
2022/03/20 06:24:03;;;;;;;24.47;18.37;;;;;;;8.46;36.39;102973.28;1647242;85;21083;-70
2022/03/20 06:26:31;;;;;;;26.00;18.03;;;;;;;8.55;35.44;102967.77;1659437;86;21045;-68
2022/03/20 06:28:59;;;;;;;28.70;17.10;;;;;;;8.58;35.68;102975.05;1662467;85;21598;-70
2022/03/20 06:31:26;;;;;;;26.43;18.50;;;;;;;8.89;34.85;102966.64;1656545;85;21213;-68
2022/03/20 06:33:54;;;;;;;31.70;20.27;;;;;;;9.24;34.15;102961.86;1661610;84;21147;-69
2022/03/20 06:36:21;;;;;;;26.27;18.70;;;;;;;9.45;33.72;102954.90;1666107;85;20985;-68
2022/03/20 06:38:48;;;;;;;29.90;18.93;;;;;;;9.62;33.08;102945.62;1656856;86;21555;-68
2022/03/20 06:41:18;;;;;;;26.97;18.70;;;;;;;9.44;32.83;102948.38;1656433;86;21128;-69
2022/03/20 06:43:45;;;;;;;27.33;18.53;;;;;;;9.22;33.26;102953.14;1625797;86;21178;-70
2022/03/20 06:46:12;;;;;;;27.47;18.60;;;;;;;8.91;33.40;102951.42;1634203;86;21020;-68
2022/03/20 06:48:39;;;;;;;25.93;19.33;;;;;;;8.19;34.27;102955.66;1636762;86;21158;-72
2022/03/20 06:51:08;;;;;;;27.13;19.27;;;;;;;7.43;35.66;102955.16;1637020;86;21079;-68
2022/03/20 06:53:36;;;;;;;27.80;18.27;;;;;;;6.79;37.01;102956.29;1638451;86;21178;-67
2022/03/20 06:56:04;;;;;;;27.70;18.20;;;;;;;6.34;38.17;102952.49;1636034;86;21095;-67
2022/03/20 06:58:30;;;;;;;26.50;17.10;;;;;;;6.04;39.14;102949.48;1636000;86;21024;-68
2022/03/20 07:00:59;;;;;;;29.50;17.23;;;;;;;5.77;39.62;102951.99;1636421;86;21143;-68
2022/03/20 07:03:28;;;;;;;23.10;17.70;;;;;;;5.49;39.88;102955.44;1635412;86;21545;-68
2022/03/20 07:05:55;;;;;;;25.53;17.20;;;;;;;5.38;40.45;102955.22;1635362;86;21107;-69
2022/03/20 07:08:23;;;;;;;25.93;16.13;;;;;;;5.38;41.13;102963.16;1635209;86;21072;-69
2022/03/20 07:10:50;;;;;;;22.27;17.33;;;;;;;5.33;41.62;102961.24;1635771;86;21103;-68
2022/03/20 07:16:02;;;;;;;23.73;16.50;;;;;;;5.27;42.54;102963.77;1634108;86;20190;-68
2022/03/20 07:18:30;;;;;;;22.60;15.30;;;;;;;5.20;43.05;102960.65;1633485;86;21385;-72
2022/03/20 07:20:58;;;;;;;25.50;16.73;;;;;;;5.01;43.16;102928.26;1633064;86;21063;-67
2022/03/20 07:23:26;;;;;;;22.70;16.73;;;;;;;5.20;43.32;102954.03;1636587;85;21383;-73
2022/03/20 07:31:26;;;;;;;19.43;14.90;;;;;;;5.18;44.34;102959.02;1636205;86;21060;-66
2022/03/20 07:33:54;;;;;;;24.83;15.67;;;;;;;5.07;44.37;102955.69;1635749;86;21153;-68
2022/03/20 07:36:21;;;;;;;20.67;14.03;;;;;;;5.06;44.73;102956.13;1634582;86;21102;-73
2022/03/20 07:38:50;;;;;;;;;;;;;;;5.01;44.92;102935.74;1609431;88;21098;-70
2022/03/20 07:41:17;;;;;;;23.07;14.57;;;;;;;5.19;44.85;102947.52;1604441;88;20156;-69
2022/03/20 07:43:44;;;;;;;22.80;15.83;;;;;;;5.19;44.82;102953.64;1622009;87;21209;-66
2022/03/20 07:46:12;;;;;;;18.50;13.93;;;;;;;5.27;44.48;102949.23;1624275;87;21670;-67
2022/03/20 07:48:40;;;;;;;23.87;15.03;;;;;;;5.38;43.79;102949.93;1617882;87;21074;-66
2022/03/20 07:51:07;;;;;;;22.17;14.00;;;;;;;5.50;43.89;102950.55;1609893;88;21091;-71
2022/03/20 07:53:35;;;;;;;18.70;13.80;;;;;;;5.63;43.92;102947.98;1618888;87;21103;-68
2022/03/20 07:56:02;;;;;;;;;;;;;;;5.75;43.83;102954.36;1623719;87;21058;-67
2022/03/20 07:58:30;;;;;;;19.77;14.40;;;;;;;5.81;43.72;102952.66;1609185;88;20149;-69
2022/03/20 08:00:58;;;;;;;18.23;13.57;;;;;;;5.83;43.73;102946.32;1624100;87;21370;-68
2022/03/20 08:03:26;;;;;;;20.67;14.20;;;;;;;5.88;43.63;102947.38;1620015;87;21613;-72
2022/03/20 08:05:53;;;;;;;25.20;14.73;;;;;;;5.94;43.69;102948.32;1623200;87;21075;-68
2022/03/20 08:08:20;;;;;;;20.63;14.10;;;;;;;6.00;43.73;102941.83;1583252;89;21657;-68
2022/03/20 08:10:52;;;;;;;22.13;14.50;;;;;;;6.11;43.65;102941.17;1622080;87;21094;-71
2022/03/20 08:13:19;;;;;;;18.90;12.83;;;;;;;6.18;43.34;102935.88;1609046;87;21132;-71
2022/03/20 08:15:47;;;;;;;24.83;13.27;;;;;;;6.29;43.01;102939.16;1616163;87;21113;-68
2022/03/20 08:18:15;;;;;;;20.87;13.77;;;;;;;6.41;41.93;102935.27;1617067;87;21081;-67
2022/03/20 08:20:42;;;;;;;17.73;12.97;;;;;;;6.52;41.80;102937.24;1678398;84;21075;-68
2022/03/20 08:23:10;;;;;;;21.10;12.53;;;;;;;6.60;41.54;102925.66;1690648;83;21032;-71
2022/03/20 08:25:38;;;;;;;20.67;13.30;;;;;;;6.65;41.19;102933.34;1680825;84;21080;-68
2022/03/20 08:28:09;;;;;;;17.50;12.17;;;;;;;6.68;41.04;102933.12;1679884;84;21587;-70
2022/03/20 08:30:37;;;;;;;16.97;12.07;;;;;;;6.71;41.03;102927.63;1679851;84;21009;-68
2022/03/20 08:33:05;;;;;;;19.33;12.30;;;;;;;6.78;41.11;102930.27;1676975;83;21080;-71
2022/03/20 08:35:32;;;;;;;17.80;12.00;;;;;;;6.81;40.72;102930.05;1680631;84;21048;-69
2022/03/20 08:38:00;;;;;;;19.10;11.30;;;;;;;6.86;41.04;102926.27;1682101;84;21556;-69
2022/03/20 08:40:27;;;;;;;14.80;11.83;;;;;;;6.95;40.15;102928.29;1668827;84;21135;-68
2022/03/20 08:42:56;;;;;;;19.10;10.73;;;;;;;6.99;40.18;102928.48;1673638;84;21116;-69
2022/03/20 08:45:29;;;;;;;15.60;10.40;;;;;;;7.07;40.40;102928.81;1680766;84;20982;-68
2022/03/20 08:47:56;;;;;;;14.13;11.43;;;;;;;7.18;40.36;102921.48;1700356;84;21521;-70
2022/03/20 08:50:23;;;;;;;17.10;11.17;;;;;;;7.24;40.49;102921.06;1681423;84;20941;-70
2022/03/20 08:52:50;;;;;;;11.70;9.43;;;;;;;7.30;39.94;102920.64;1681853;84;21449;-73
2022/03/20 08:55:17;;;;;;;12.80;10.23;;;;;;;7.38;39.09;102920.99;1670136;84;21056;-69
2022/03/20 08:57:47;;;;;;;15.93;11.33;;;;;;;7.40;38.49;102914.23;1679823;84;21102;-69
2022/03/20 09:00:17;;;;;;;16.67;9.97;;;;;;;7.41;39.08;102909.30;1666694;84;21062;-69
2022/03/20 09:02:46;;;;;;;11.47;8.93;;;;;;;7.48;39.68;102913.25;1681656;84;21466;-68
2022/03/20 09:05:14;;;;;;;12.47;9.50;;;;;;;7.57;37.83;102909.09;1676785;84;21562;-69
2022/03/20 09:07:42;;;;;;;14.83;9.83;;;;;;;7.59;37.49;102906.72;1681108;84;21114;-70
2022/03/20 09:10:12;;;;;;;11.90;10.43;;;;;;;7.60;37.78;102900.93;1682343;84;21677;-69
2022/03/20 09:12:43;;;;;;;17.03;10.73;;;;;;;7.66;38.25;102906.30;1653863;84;21059;-70
2022/03/20 09:15:13;;;;;;;13.60;10.70;;;;;;;7.74;38.70;102905.27;1669750;84;21005;-69
2022/03/20 09:20:29;;;;;;;13.30;10.37;;;;;;;8.06;38.08;102896.39;1654069;84;21108;-68
2022/03/20 09:22:56;;;;;;;16.43;10.00;;;;;;;8.19;37.47;102896.34;1669658;84;21134;-66
2022/03/20 09:25:24;;;;;;;14.13;10.33;;;;;;;8.24;37.36;102890.22;1696077;82;20987;-68
2022/03/20 09:27:52;;;;;;;11.10;9.93;;;;;;;8.30;37.08;102897.75;1700947;82;22040;-72
2022/03/20 09:30:21;;;;;;;13.13;8.93;;;;;;;8.37;36.71;102892.85;1701161;82;20998;-68
2022/03/20 09:32:53;;;;;;;9.97;8.47;;;;;;;8.43;36.32;102889.77;1693603;82;21075;-69
2022/03/20 09:35:20;;;;;;;16.63;9.90;;;;;;;8.48;35.92;102892.11;1688198;82;21110;-68
2022/03/20 09:37:48;;;;;;;12.33;10.63;;;;;;;8.54;35.94;102889.00;1686200;82;22380;-71
2022/03/20 09:40:15;;;;;;;13.97;10.10;;;;;;;8.64;35.65;102885.17;1686807;82;21172;-68
2022/03/20 09:42:42;;;;;;;13.47;10.03;;;;;;;8.64;35.32;102880.70;1688023;82;21047;-69
2022/03/20 09:45:10;;;;;;;12.97;10.10;;;;;;;8.63;35.23;102883.01;1687128;82;21154;-69
2022/03/20 09:47:41;;;;;;;12.67;9.27;;;;;;;8.69;35.31;102886.53;1694945;82;21061;-70
2022/03/20 09:50:10;;;;;;;11.20;9.20;;;;;;;8.74;35.06;102887.05;1691517;82;21627;-68
2022/03/20 09:52:40;;;;;;;10.23;9.10;;;;;;;8.79;34.86;102874.73;1685155;82;21104;-69
2022/03/20 09:55:11;;;;;;;12.20;9.83;;;;;;;8.80;34.72;102875.56;1702022;82;21628;-69
2022/03/20 09:57:40;;;;;;;13.83;10.13;;;;;;;8.83;34.75;102870.87;1696916;82;20970;-67
2022/03/20 10:00:11;;;;;;;17.37;8.87;;;;;;;8.91;34.47;102867.63;1705256;82;21186;-67
2022/03/20 10:02:39;;;;;;;12.03;8.70;;;;;;;8.95;34.26;102869.96;1695997;82;21089;-68
2022/03/20 10:05:08;;;;;;;11.80;8.07;;;;;;;8.95;34.65;102873.11;1698769;82;20970;-70
2022/03/20 10:07:42;;;;;;;11.13;9.73;;;;;;;8.95;33.82;102865.97;1707678;82;21023;-68
2022/03/20 10:10:18;;;;;;;13.50;9.00;;;;;;;9.02;33.87;102865.50;1705049;82;21036;-69
2022/03/20 10:12:51;;;;;;;12.37;8.87;;;;;;;9.08;33.40;102875.21;1705128;82;21289;-69
2022/03/20 10:15:38;;;;;;;11.10;8.30;;;;;;;9.06;33.17;102874.94;1708790;82;21591;-70
2022/03/20 10:18:24;;;;;;;13.40;8.17;;;;;;;9.02;33.28;102866.34;1698812;82;21501;-68
2022/03/20 10:20:56;;;;;;;13.37;8.53;;;;;;;8.99;33.32;102871.91;1705197;82;20957;-72
2022/03/20 10:23:45;;;;;;;12.93;8.30;;;;;;;8.96;32.61;102868.98;1698084;82;21069;-67
2022/03/20 10:26:18;;;;;;;10.80;7.57;;;;;;;8.89;33.06;102870.89;1702179;82;20974;-68
2022/03/20 10:28:55;;;;;;;10.67;8.70;;;;;;;8.87;32.91;102861.72;1704823;82;21049;-69
2022/03/20 10:31:23;;;;;;;;;;;;;;;8.91;33.12;102849.88;1707560;82;21527;-69
2022/03/20 10:34:01;;;;;;;;;;;;;;;9.00;33.09;102856.79;1701676;82;20212;-71
2022/03/20 10:36:28;;;;;;;8.03;6.43;;;;;;;9.02;32.38;102848.20;1705369;82;20145;-69
2022/03/20 10:38:58;;;;;;;9.27;7.53;;;;;;;9.01;31.93;102842.05;1707884;82;21667;-70
2022/03/20 10:41:33;;;;;;;9.73;7.73;;;;;;;9.04;32.09;102836.50;1707300;82;21040;-69
2022/03/20 10:43:59;;;;;;;8.57;7.03;;;;;;;9.13;31.95;102836.27;1704926;82;21529;-69
2022/03/20 10:46:30;;;;;;;9.53;7.43;;;;;;;9.19;31.89;102832.28;1708183;82;21611;-68
2022/03/20 10:49:00;;;;;;;8.10;7.17;;;;;;;9.22;31.60;102830.23;1707408;82;20993;-68
2022/03/20 10:51:38;;;;;;;8.37;6.60;;;;;;;9.21;31.88;102823.70;1718801;82;21045;-71
2022/03/20 10:54:22;;;;;;;7.97;6.20;;;;;;;9.28;31.65;102832.91;1703769;82;21567;-69
2022/03/20 10:56:59;;;;;;;6.40;5.73;;;;;;;9.26;30.92;102829.52;1706161;82;21212;-70
2022/03/20 10:59:32;;;;;;;9.87;6.70;;;;;;;8.77;30.74;102747.68;1706788;82;21052;-68
2022/03/20 11:02:03;;;;;;;8.87;6.43;;;;;;;9.23;31.01;102820.43;1696619;82;21006;-69
2022/03/20 11:04:31;;;;;;;13.03;6.40;;;;;;;9.18;30.54;102823.95;1715441;82;21056;-69
2022/03/20 11:07:00;;;;;;;7.23;6.53;;;;;;;9.14;31.04;102822.84;1710143;82;21057;-69
2022/03/20 11:09:29;;;;;;;8.83;7.07;;;;;;;9.14;31.17;102813.53;1695710;82;20992;-69
2022/03/20 11:11:59;;;;;;;9.87;6.37;;;;;;;9.19;31.29;102809.66;1698410;82;21286;-69
2022/03/20 11:14:28;;;;;;;7.73;6.93;;;;;;;9.24;31.19;102804.34;1709088;82;21510;-70
2022/03/20 11:17:06;;;;;;;8.50;6.90;;;;;;;9.26;31.33;102812.22;1707019;82;21574;-69
2022/03/20 11:19:37;;;;;;;10.68;6.80;;;;;;;9.29;31.36;102810.17;1704775;82;21001;-69
2022/03/20 11:22:09;;;;;;;7.43;6.63;;;;;;;9.32;31.05;102799.76;1696440;82;20989;-69
2022/03/20 11:24:38;;;;;;;11.13;6.37;;;;;;;9.31;31.01;102806.06;1695913;82;21520;-69
2022/03/20 11:27:06;;;;;;;11.87;7.30;;;;;;;9.30;30.94;102793.71;1707487;82;21004;-69
2022/03/20 11:29:50;;;;;;;10.47;7.20;;;;;;;9.34;30.80;102799.16;1698000;82;21009;-68
2022/03/20 11:32:18;;;;;;;7.87;6.07;;;;;;;9.37;30.68;102805.58;1705074;82;22083;-69
2022/03/20 11:34:47;;;;;;;6.63;5.90;;;;;;;9.38;30.77;102791.31;1704874;82;21619;-67
2022/03/20 11:37:16;;;;;;;9.10;7.27;;;;;;;9.41;30.65;102792.39;1712207;82;21017;-68
2022/03/20 11:40:12;;;;;;;9.07;6.30;;;;;;;9.44;30.46;102785.50;1708453;82;21679;-69
2022/03/20 11:42:40;;;;;;;8.33;7.20;;;;;;;9.43;30.30;102784.28;1699872;82;20985;-69
2022/03/20 11:45:12;;;;;;;7.67;6.83;;;;;;;9.40;30.17;102782.72;1700685;82;21235;-68
2022/03/20 11:47:44;;;;;;;10.50;6.17;;;;;;;9.36;30.05;102785.23;1704856;82;21020;-70
2022/03/20 11:50:25;;;;;;;8.67;6.70;;;;;;;9.32;30.15;102778.01;1711208;82;22170;-69
2022/03/20 11:53:03;;;;;;;7.37;6.23;;;;;;;9.30;30.07;102767.94;1698558;82;21139;-68
2022/03/20 11:55:51;;;;;;;6.78;6.08;;;;;;;9.27;29.57;102772.68;1706260;82;20947;-69
2022/03/20 11:58:24;;;;;;;7.73;5.63;;;;;;;9.27;29.57;102772.68;1708709;82;21096;-69
2022/03/20 12:01:09;;;;;;;7.47;5.77;;;;;;;9.25;29.49;102768.80;1707807;82;22107;-69
2022/03/20 12:04:04;;;;;;;6.50;5.67;;;;;;;9.19;29.65;102762.60;1708368;82;22152;-67
2022/03/20 12:06:54;;;;;;;8.60;5.50;;;;;;;9.14;29.64;102770.96;1706479;82;21529;-69
2022/03/20 12:09:50;;;;;;;9.00;5.20;;;;;;;9.13;29.72;102767.08;1710206;82;21052;-70